sensor_id;sensor_type;location;lat;lon;timestamp;P1;durP1;ratioP1;P2;durP2;ratioP2
14001;SDS011;7076;51.280;12.584;2023-02-11T00:01:15;20.17;;;10.60;;
14001;SDS011;7076;51.280;12.584;2023-02-11T00:06:21;20.97;;;11.87;;
14001;SDS011;7076;51.280;12.584;2023-02-11T00:11:26;19.73;;;11.43;;
14001;SDS011;7076;51.280;12.584;2023-02-11T00:16:31;23.90;;;11.40;;
14001;SDS011;7076;51.280;12.584;2023-02-11T00:21:33;20.60;;;11.93;;
14001;SDS011;7076;51.280;12.584;2023-02-11T00:26:38;20.40;;;11.10;;
14001;SDS011;7076;51.280;12.584;2023-02-11T00:31:40;20.33;;;11.50;;
14001;SDS011;7076;51.280;12.584;2023-02-11T00:36:43;22.07;;;11.00;;
14001;SDS011;7076;51.280;12.584;2023-02-11T00:41:49;18.10;;;10.67;;
14001;SDS011;7076;51.280;12.584;2023-02-11T00:46:52;18.07;;;11.10;;
14001;SDS011;7076;51.280;12.584;2023-02-11T00:51:55;17.80;;;10.30;;
14001;SDS011;7076;51.280;12.584;2023-02-11T00:56:59;20.47;;;11.07;;
14001;SDS011;7076;51.280;12.584;2023-02-11T01:02:02;17.57;;;10.40;;
14001;SDS011;7076;51.280;12.584;2023-02-11T01:07:04;21.87;;;12.10;;
14001;SDS011;7076;51.280;12.584;2023-02-11T01:12:09;23.77;;;11.70;;
14001;SDS011;7076;51.280;12.584;2023-02-11T01:17:14;22.63;;;11.83;;
14001;SDS011;7076;51.280;12.584;2023-02-11T01:22:17;19.33;;;11.80;;
14001;SDS011;7076;51.280;12.584;2023-02-11T01:27:22;19.93;;;12.17;;
14001;SDS011;7076;51.280;12.584;2023-02-11T01:32:25;20.57;;;10.50;;
14001;SDS011;7076;51.280;12.584;2023-02-11T01:37:27;19.17;;;11.30;;
14001;SDS011;7076;51.280;12.584;2023-02-11T01:42:32;23.40;;;11.50;;
14001;SDS011;7076;51.280;12.584;2023-02-11T01:47:35;18.90;;;11.40;;
14001;SDS011;7076;51.280;12.584;2023-02-11T01:52:38;21.10;;;12.67;;
14001;SDS011;7076;51.280;12.584;2023-02-11T01:57:44;22.07;;;12.70;;
14001;SDS011;7076;51.280;12.584;2023-02-11T02:02:49;19.93;;;11.53;;
14001;SDS011;7076;51.280;12.584;2023-02-11T02:07:59;21.17;;;12.27;;
14001;SDS011;7076;51.280;12.584;2023-02-11T02:13:06;20.60;;;12.83;;
14001;SDS011;7076;51.280;12.584;2023-02-11T02:18:13;21.37;;;12.83;;
14001;SDS011;7076;51.280;12.584;2023-02-11T02:23:27;21.57;;;12.87;;
14001;SDS011;7076;51.280;12.584;2023-02-11T02:28:49;24.03;;;13.73;;
14001;SDS011;7076;51.280;12.584;2023-02-11T02:34:05;18.60;;;12.53;;
14001;SDS011;7076;51.280;12.584;2023-02-11T02:39:12;20.93;;;12.57;;
14001;SDS011;7076;51.280;12.584;2023-02-11T02:44:18;18.73;;;11.27;;
14001;SDS011;7076;51.280;12.584;2023-02-11T02:49:23;21.13;;;12.77;;
14001;SDS011;7076;51.280;12.584;2023-02-11T02:54:34;19.43;;;11.63;;
14001;SDS011;7076;51.280;12.584;2023-02-11T02:59:48;18.93;;;11.70;;
14001;SDS011;7076;51.280;12.584;2023-02-11T03:04:57;23.03;;;13.20;;
14001;SDS011;7076;51.280;12.584;2023-02-11T03:10:05;19.77;;;11.93;;
14001;SDS011;7076;51.280;12.584;2023-02-11T03:15:09;18.13;;;11.70;;
14001;SDS011;7076;51.280;12.584;2023-02-11T03:20:15;18.67;;;11.50;;
14001;SDS011;7076;51.280;12.584;2023-02-11T03:25:19;18.27;;;12.13;;
14001;SDS011;7076;51.280;12.584;2023-02-11T03:30:24;18.77;;;11.90;;
14001;SDS011;7076;51.280;12.584;2023-02-11T03:35:31;20.47;;;12.03;;
14001;SDS011;7076;51.280;12.584;2023-02-11T03:40:35;21.93;;;11.90;;
14001;SDS011;7076;51.280;12.584;2023-02-11T03:45:40;21.50;;;12.53;;
14001;SDS011;7076;51.280;12.584;2023-02-11T03:50:44;18.00;;;11.53;;
14001;SDS011;7076;51.280;12.584;2023-02-11T03:55:48;19.57;;;12.70;;
14001;SDS011;7076;51.280;12.584;2023-02-11T04:00:52;18.83;;;12.27;;
14001;SDS011;7076;51.280;12.584;2023-02-11T04:05:56;18.33;;;11.93;;
14001;SDS011;7076;51.280;12.584;2023-02-11T04:10:59;20.43;;;12.23;;
14001;SDS011;7076;51.280;12.584;2023-02-11T04:16:06;20.73;;;11.57;;
14001;SDS011;7076;51.280;12.584;2023-02-11T04:21:10;20.13;;;12.87;;
14001;SDS011;7076;51.280;12.584;2023-02-11T04:26:13;18.30;;;11.27;;
14001;SDS011;7076;51.280;12.584;2023-02-11T04:31:16;20.23;;;12.00;;
14001;SDS011;7076;51.280;12.584;2023-02-11T04:36:20;21.00;;;12.13;;
14001;SDS011;7076;51.280;12.584;2023-02-11T04:41:23;22.37;;;13.30;;
14001;SDS011;7076;51.280;12.584;2023-02-11T04:46:26;17.43;;;11.60;;
14001;SDS011;7076;51.280;12.584;2023-02-11T04:51:30;18.47;;;11.87;;
14001;SDS011;7076;51.280;12.584;2023-02-11T04:56:32;19.33;;;11.43;;
14001;SDS011;7076;51.280;12.584;2023-02-11T05:01:35;17.43;;;11.50;;
14001;SDS011;7076;51.280;12.584;2023-02-11T05:06:40;21.90;;;11.37;;
14001;SDS011;7076;51.280;12.584;2023-02-11T05:11:43;19.87;;;11.50;;
14001;SDS011;7076;51.280;12.584;2023-02-11T05:16:45;19.97;;;11.53;;
14001;SDS011;7076;51.280;12.584;2023-02-11T05:21:50;19.53;;;12.47;;
14001;SDS011;7076;51.280;12.584;2023-02-11T05:27:03;18.50;;;10.13;;
14001;SDS011;7076;51.280;12.584;2023-02-11T05:32:06;21.47;;;11.90;;
14001;SDS011;7076;51.280;12.584;2023-02-11T05:37:10;19.87;;;11.63;;
14001;SDS011;7076;51.280;12.584;2023-02-11T05:42:13;18.77;;;11.73;;
14001;SDS011;7076;51.280;12.584;2023-02-11T05:47:16;18.73;;;11.27;;
14001;SDS011;7076;51.280;12.584;2023-02-11T05:52:20;19.53;;;11.13;;
14001;SDS011;7076;51.280;12.584;2023-02-11T05:57:23;22.37;;;12.50;;
14001;SDS011;7076;51.280;12.584;2023-02-11T06:02:26;20.57;;;11.93;;
14001;SDS011;7076;51.280;12.584;2023-02-11T06:07:30;17.47;;;10.60;;
14001;SDS011;7076;51.280;12.584;2023-02-11T06:12:33;21.00;;;11.57;;
14001;SDS011;7076;51.280;12.584;2023-02-11T06:17:37;23.90;;;12.83;;
14001;SDS011;7076;51.280;12.584;2023-02-11T06:22:41;22.03;;;12.87;;
14001;SDS011;7076;51.280;12.584;2023-02-11T06:27:44;25.23;;;12.80;;
14001;SDS011;7076;51.280;12.584;2023-02-11T06:32:46;21.17;;;12.67;;
14001;SDS011;7076;51.280;12.584;2023-02-11T06:37:51;22.47;;;12.43;;
14001;SDS011;7076;51.280;12.584;2023-02-11T06:42:54;21.90;;;12.83;;
14001;SDS011;7076;51.280;12.584;2023-02-11T06:47:57;22.80;;;12.67;;
14001;SDS011;7076;51.280;12.584;2023-02-11T06:53:01;22.03;;;13.43;;
14001;SDS011;7076;51.280;12.584;2023-02-11T06:58:04;20.37;;;12.80;;
14001;SDS011;7076;51.280;12.584;2023-02-11T07:03:06;24.07;;;15.43;;
14001;SDS011;7076;51.280;12.584;2023-02-11T07:08:11;22.57;;;13.50;;
14001;SDS011;7076;51.280;12.584;2023-02-11T07:13:13;25.93;;;14.83;;
14001;SDS011;7076;51.280;12.584;2023-02-11T07:18:16;23.07;;;14.47;;
14001;SDS011;7076;51.280;12.584;2023-02-11T07:23:20;31.43;;;17.23;;
14001;SDS011;7076;51.280;12.584;2023-02-11T07:28:23;30.10;;;16.33;;
14001;SDS011;7076;51.280;12.584;2023-02-11T07:33:26;23.77;;;14.70;;
14001;SDS011;7076;51.280;12.584;2023-02-11T07:38:31;27.97;;;16.80;;
14001;SDS011;7076;51.280;12.584;2023-02-11T07:43:34;27.37;;;15.90;;
14001;SDS011;7076;51.280;12.584;2023-02-11T07:48:37;29.97;;;15.10;;
14001;SDS011;7076;51.280;12.584;2023-02-11T07:53:41;26.20;;;14.97;;
14001;SDS011;7076;51.280;12.584;2023-02-11T07:58:44;28.43;;;15.87;;
14001;SDS011;7076;51.280;12.584;2023-02-11T08:03:47;27.67;;;15.80;;
14001;SDS011;7076;51.280;12.584;2023-02-11T08:08:51;31.33;;;14.90;;
14001;SDS011;7076;51.280;12.584;2023-02-11T08:13:55;26.77;;;15.90;;
14001;SDS011;7076;51.280;12.584;2023-02-11T08:18:59;26.63;;;14.23;;
14001;SDS011;7076;51.280;12.584;2023-02-11T08:24:04;26.93;;;15.10;;
14001;SDS011;7076;51.280;12.584;2023-02-11T08:29:08;24.07;;;14.60;;
14001;SDS011;7076;51.280;12.584;2023-02-11T08:34:12;28.43;;;16.03;;
14001;SDS011;7076;51.280;12.584;2023-02-11T08:39:20;29.27;;;18.53;;
14001;SDS011;7076;51.280;12.584;2023-02-11T08:44:23;29.03;;;15.00;;
14001;SDS011;7076;51.280;12.584;2023-02-11T08:49:26;28.67;;;16.93;;
14001;SDS011;7076;51.280;12.584;2023-02-11T08:54:31;29.73;;;17.17;;
14001;SDS011;7076;51.280;12.584;2023-02-11T08:59:34;27.73;;;15.93;;
14001;SDS011;7076;51.280;12.584;2023-02-11T09:04:37;24.23;;;14.17;;
14001;SDS011;7076;51.280;12.584;2023-02-11T09:09:41;29.23;;;18.27;;
14001;SDS011;7076;51.280;12.584;2023-02-11T09:14:44;28.07;;;16.10;;
14001;SDS011;7076;51.280;12.584;2023-02-11T09:19:47;23.13;;;14.80;;
14001;SDS011;7076;51.280;12.584;2023-02-11T09:24:51;26.47;;;15.37;;
14001;SDS011;7076;51.280;12.584;2023-02-11T09:29:54;26.10;;;15.53;;
14001;SDS011;7076;51.280;12.584;2023-02-11T09:34:57;26.00;;;16.73;;
14001;SDS011;7076;51.280;12.584;2023-02-11T09:40:01;25.00;;;15.37;;
14001;SDS011;7076;51.280;12.584;2023-02-11T09:45:04;24.83;;;15.03;;
14001;SDS011;7076;51.280;12.584;2023-02-11T09:50:17;24.77;;;15.10;;
14001;SDS011;7076;51.280;12.584;2023-02-11T09:55:25;26.70;;;16.00;;
14001;SDS011;7076;51.280;12.584;2023-02-11T10:00:31;23.47;;;14.33;;
14001;SDS011;7076;51.280;12.584;2023-02-11T10:05:41;23.13;;;15.23;;
14001;SDS011;7076;51.280;12.584;2023-02-11T10:10:53;26.63;;;15.73;;
14001;SDS011;7076;51.280;12.584;2023-02-11T10:16:04;28.00;;;15.73;;
14001;SDS011;7076;51.280;12.584;2023-02-11T10:21:13;25.47;;;13.67;;
14001;SDS011;7076;51.280;12.584;2023-02-11T10:26:22;24.07;;;13.87;;
14001;SDS011;7076;51.280;12.584;2023-02-11T10:31:32;24.37;;;14.83;;
14001;SDS011;7076;51.280;12.584;2023-02-11T10:36:37;25.87;;;14.93;;
14001;SDS011;7076;51.280;12.584;2023-02-11T10:41:44;22.83;;;14.37;;
14001;SDS011;7076;51.280;12.584;2023-02-11T10:46:48;21.47;;;13.33;;
14001;SDS011;7076;51.280;12.584;2023-02-11T10:51:51;20.83;;;14.20;;
14001;SDS011;7076;51.280;12.584;2023-02-11T10:57:16;20.70;;;13.73;;
14001;SDS011;7076;51.280;12.584;2023-02-11T11:02:21;23.87;;;14.40;;
14001;SDS011;7076;51.280;12.584;2023-02-11T11:07:25;25.93;;;15.20;;
14001;SDS011;7076;51.280;12.584;2023-02-11T11:12:35;22.10;;;13.40;;
14001;SDS011;7076;51.280;12.584;2023-02-11T11:17:42;22.07;;;14.53;;
14001;SDS011;7076;51.280;12.584;2023-02-11T11:22:45;23.03;;;15.17;;
14001;SDS011;7076;51.280;12.584;2023-02-11T11:27:50;22.30;;;13.73;;
14001;SDS011;7076;51.280;12.584;2023-02-11T11:32:54;27.43;;;15.00;;
14001;SDS011;7076;51.280;12.584;2023-02-11T11:37:58;24.10;;;14.23;;
14001;SDS011;7076;51.280;12.584;2023-02-11T11:43:05;22.40;;;14.17;;
14001;SDS011;7076;51.280;12.584;2023-02-11T11:48:17;24.60;;;14.27;;
14001;SDS011;7076;51.280;12.584;2023-02-11T11:53:24;22.77;;;14.00;;
14001;SDS011;7076;51.280;12.584;2023-02-11T11:58:32;21.37;;;13.20;;
14001;SDS011;7076;51.280;12.584;2023-02-11T12:03:56;19.10;;;12.60;;
14001;SDS011;7076;51.280;12.584;2023-02-11T12:09:13;20.47;;;13.40;;
14001;SDS011;7076;51.280;12.584;2023-02-11T12:14:25;22.03;;;13.83;;
14001;SDS011;7076;51.280;12.584;2023-02-11T12:25:08;20.37;;;13.57;;
14001;SDS011;7076;51.280;12.584;2023-02-11T12:30:31;21.20;;;13.37;;
14001;SDS011;7076;51.280;12.584;2023-02-11T12:35:42;22.17;;;13.37;;
14001;SDS011;7076;51.280;12.584;2023-02-11T12:40:52;19.00;;;12.73;;
14001;SDS011;7076;51.280;12.584;2023-02-11T12:46:13;21.80;;;12.93;;
14001;SDS011;7076;51.280;12.584;2023-02-11T12:51:28;22.70;;;13.73;;
14001;SDS011;7076;51.280;12.584;2023-02-11T12:56:39;23.70;;;15.07;;
14001;SDS011;7076;51.280;12.584;2023-02-11T13:01:48;20.60;;;13.20;;
14001;SDS011;7076;51.280;12.584;2023-02-11T13:06:52;23.70;;;13.50;;
14001;SDS011;7076;51.280;12.584;2023-02-11T13:11:57;22.97;;;13.63;;
14001;SDS011;7076;51.280;12.584;2023-02-11T13:17:24;21.67;;;13.53;;
14001;SDS011;7076;51.280;12.584;2023-02-11T13:22:30;19.83;;;12.17;;
14001;SDS011;7076;51.280;12.584;2023-02-11T13:27:37;19.17;;;12.97;;
14001;SDS011;7076;51.280;12.584;2023-02-11T13:38:16;18.93;;;11.43;;
14001;SDS011;7076;51.280;12.584;2023-02-11T13:43:22;20.50;;;13.07;;
14001;SDS011;7076;51.280;12.584;2023-02-11T13:48:30;19.73;;;12.00;;
14001;SDS011;7076;51.280;12.584;2023-02-11T13:53:43;19.02;;;11.55;;
14001;SDS011;7076;51.280;12.584;2023-02-11T13:58:47;18.13;;;11.80;;
14001;SDS011;7076;51.280;12.584;2023-02-11T14:04:05;18.58;;;12.30;;
14001;SDS011;7076;51.280;12.584;2023-02-11T14:09:38;19.37;;;12.20;;
14001;SDS011;7076;51.280;12.584;2023-02-11T14:14:56;21.03;;;13.30;;
14001;SDS011;7076;51.280;12.584;2023-02-11T14:20:30;19.10;;;11.97;;
14001;SDS011;7076;51.280;12.584;2023-02-11T14:25:36;22.73;;;13.13;;
14001;SDS011;7076;51.280;12.584;2023-02-11T14:30:45;20.73;;;12.90;;
14001;SDS011;7076;51.280;12.584;2023-02-11T14:35:57;19.90;;;12.97;;
14001;SDS011;7076;51.280;12.584;2023-02-11T14:41:05;22.67;;;13.80;;
14001;SDS011;7076;51.280;12.584;2023-02-11T14:46:09;20.63;;;12.83;;
14001;SDS011;7076;51.280;12.584;2023-02-11T14:51:14;20.30;;;11.47;;
14001;SDS011;7076;51.280;12.584;2023-02-11T14:56:20;23.97;;;12.80;;
14001;SDS011;7076;51.280;12.584;2023-02-11T15:01:27;20.67;;;11.10;;
14001;SDS011;7076;51.280;12.584;2023-02-11T15:06:35;22.87;;;12.97;;
14001;SDS011;7076;51.280;12.584;2023-02-11T15:11:39;22.07;;;13.27;;
14001;SDS011;7076;51.280;12.584;2023-02-11T15:16:44;20.38;;;12.75;;
14001;SDS011;7076;51.280;12.584;2023-02-11T15:21:48;19.23;;;12.93;;
14001;SDS011;7076;51.280;12.584;2023-02-11T15:26:55;20.30;;;12.10;;
14001;SDS011;7076;51.280;12.584;2023-02-11T15:32:03;17.97;;;12.03;;
14001;SDS011;7076;51.280;12.584;2023-02-11T15:37:10;20.90;;;12.43;;
14001;SDS011;7076;51.280;12.584;2023-02-11T15:42:15;16.90;;;11.17;;
14001;SDS011;7076;51.280;12.584;2023-02-11T15:47:19;18.03;;;11.90;;
14001;SDS011;7076;51.280;12.584;2023-02-11T15:52:25;19.73;;;11.98;;
14001;SDS011;7076;51.280;12.584;2023-02-11T15:57:28;22.33;;;12.53;;
14001;SDS011;7076;51.280;12.584;2023-02-11T16:02:32;21.07;;;12.83;;
14001;SDS011;7076;51.280;12.584;2023-02-11T16:07:39;18.67;;;11.77;;
14001;SDS011;7076;51.280;12.584;2023-02-11T16:12:49;21.93;;;13.23;;
14001;SDS011;7076;51.280;12.584;2023-02-11T16:17:53;18.53;;;11.53;;
14001;SDS011;7076;51.280;12.584;2023-02-11T16:22:57;18.87;;;11.13;;
14001;SDS011;7076;51.280;12.584;2023-02-11T16:28:01;19.03;;;12.50;;
14001;SDS011;7076;51.280;12.584;2023-02-11T16:33:04;19.53;;;12.20;;
14001;SDS011;7076;51.280;12.584;2023-02-11T16:38:08;18.13;;;11.23;;
14001;SDS011;7076;51.280;12.584;2023-02-11T16:43:11;21.60;;;11.33;;
14001;SDS011;7076;51.280;12.584;2023-02-11T16:48:14;18.87;;;12.33;;
14001;SDS011;7076;51.280;12.584;2023-02-11T16:53:21;17.57;;;10.50;;
14001;SDS011;7076;51.280;12.584;2023-02-11T16:58:24;18.53;;;11.33;;
14001;SDS011;7076;51.280;12.584;2023-02-11T17:03:27;21.13;;;12.97;;
14001;SDS011;7076;51.280;12.584;2023-02-11T17:08:32;21.87;;;11.97;;
14001;SDS011;7076;51.280;12.584;2023-02-11T17:13:36;25.40;;;13.20;;
14001;SDS011;7076;51.280;12.584;2023-02-11T17:18:39;21.50;;;13.20;;
14001;SDS011;7076;51.280;12.584;2023-02-11T17:23:43;19.53;;;11.97;;
14001;SDS011;7076;51.280;12.584;2023-02-11T17:28:47;18.47;;;12.30;;
14001;SDS011;7076;51.280;12.584;2023-02-11T17:33:49;20.17;;;11.90;;
14001;SDS011;7076;51.280;12.584;2023-02-11T17:38:54;21.20;;;12.17;;
14001;SDS011;7076;51.280;12.584;2023-02-11T17:43:57;21.40;;;12.80;;
14001;SDS011;7076;51.280;12.584;2023-02-11T17:49:00;24.67;;;13.37;;
14001;SDS011;7076;51.280;12.584;2023-02-11T17:54:05;25.53;;;13.43;;
14001;SDS011;7076;51.280;12.584;2023-02-11T17:59:10;20.57;;;12.80;;
14001;SDS011;7076;51.280;12.584;2023-02-11T18:04:15;22.77;;;14.27;;
14001;SDS011;7076;51.280;12.584;2023-02-11T18:09:20;22.00;;;13.68;;
14001;SDS011;7076;51.280;12.584;2023-02-11T18:14:23;23.23;;;13.50;;
14001;SDS011;7076;51.280;12.584;2023-02-11T18:19:27;20.67;;;14.07;;
14001;SDS011;7076;51.280;12.584;2023-02-11T18:24:34;24.70;;;14.20;;
14001;SDS011;7076;51.280;12.584;2023-02-11T18:29:37;25.47;;;15.20;;
14001;SDS011;7076;51.280;12.584;2023-02-11T18:34:40;24.37;;;14.83;;
14001;SDS011;7076;51.280;12.584;2023-02-11T18:39:44;25.60;;;14.90;;
14001;SDS011;7076;51.280;12.584;2023-02-11T18:44:47;28.27;;;16.37;;
14001;SDS011;7076;51.280;12.584;2023-02-11T18:49:50;24.00;;;14.73;;
14001;SDS011;7076;51.280;12.584;2023-02-11T18:54:54;27.13;;;15.20;;
14001;SDS011;7076;51.280;12.584;2023-02-11T18:59:57;27.03;;;16.93;;
14001;SDS011;7076;51.280;12.584;2023-02-11T19:05:00;26.10;;;15.90;;
14001;SDS011;7076;51.280;12.584;2023-02-11T19:10:05;29.20;;;15.03;;
14001;SDS011;7076;51.280;12.584;2023-02-11T19:15:09;31.23;;;16.77;;
14001;SDS011;7076;51.280;12.584;2023-02-11T19:20:11;31.17;;;16.77;;
14001;SDS011;7076;51.280;12.584;2023-02-11T19:25:16;24.53;;;15.77;;
14001;SDS011;7076;51.280;12.584;2023-02-11T19:30:18;24.00;;;14.90;;
14001;SDS011;7076;51.280;12.584;2023-02-11T19:35:22;26.13;;;15.10;;
14001;SDS011;7076;51.280;12.584;2023-02-11T19:40:26;26.07;;;15.47;;
14001;SDS011;7076;51.280;12.584;2023-02-11T19:45:29;26.00;;;15.80;;
14001;SDS011;7076;51.280;12.584;2023-02-11T19:50:32;27.10;;;16.33;;
14001;SDS011;7076;51.280;12.584;2023-02-11T19:55:36;26.20;;;16.07;;
14001;SDS011;7076;51.280;12.584;2023-02-11T20:00:39;30.17;;;17.37;;
14001;SDS011;7076;51.280;12.584;2023-02-11T20:05:42;25.10;;;16.37;;
14001;SDS011;7076;51.280;12.584;2023-02-11T20:10:49;28.47;;;17.23;;
14001;SDS011;7076;51.280;12.584;2023-02-11T20:15:52;29.83;;;17.97;;
14001;SDS011;7076;51.280;12.584;2023-02-11T20:20:55;26.93;;;17.63;;
14001;SDS011;7076;51.280;12.584;2023-02-11T20:26:05;26.27;;;16.60;;
14001;SDS011;7076;51.280;12.584;2023-02-11T20:31:09;29.47;;;17.83;;
14001;SDS011;7076;51.280;12.584;2023-02-11T20:36:13;30.70;;;18.70;;
14001;SDS011;7076;51.280;12.584;2023-02-11T20:41:19;25.17;;;15.83;;
14001;SDS011;7076;51.280;12.584;2023-02-11T20:46:23;25.53;;;16.33;;
14001;SDS011;7076;51.280;12.584;2023-02-11T20:51:28;28.30;;;17.57;;
14001;SDS011;7076;51.280;12.584;2023-02-11T20:56:34;27.77;;;16.37;;
14001;SDS011;7076;51.280;12.584;2023-02-11T21:01:38;29.30;;;17.10;;
14001;SDS011;7076;51.280;12.584;2023-02-11T21:06:44;27.57;;;17.17;;
14001;SDS011;7076;51.280;12.584;2023-02-11T21:11:50;27.93;;;16.97;;
14001;SDS011;7076;51.280;12.584;2023-02-11T21:16:53;24.93;;;14.83;;
14001;SDS011;7076;51.280;12.584;2023-02-11T21:21:56;24.33;;;15.03;;
14001;SDS011;7076;51.280;12.584;2023-02-11T21:27:02;22.80;;;13.97;;
14001;SDS011;7076;51.280;12.584;2023-02-11T21:32:05;25.93;;;14.83;;
14001;SDS011;7076;51.280;12.584;2023-02-11T21:37:07;31.83;;;16.43;;
14001;SDS011;7076;51.280;12.584;2023-02-11T21:42:12;23.30;;;15.13;;
14001;SDS011;7076;51.280;12.584;2023-02-11T21:47:15;27.00;;;17.00;;
14001;SDS011;7076;51.280;12.584;2023-02-11T21:52:17;27.73;;;17.13;;
14001;SDS011;7076;51.280;12.584;2023-02-11T21:57:22;27.23;;;16.50;;
14001;SDS011;7076;51.280;12.584;2023-02-11T22:02:25;26.73;;;15.93;;
14001;SDS011;7076;51.280;12.584;2023-02-11T22:07:28;22.53;;;14.23;;
14001;SDS011;7076;51.280;12.584;2023-02-11T22:12:32;25.37;;;15.30;;
14001;SDS011;7076;51.280;12.584;2023-02-11T22:17:35;25.90;;;15.17;;
14001;SDS011;7076;51.280;12.584;2023-02-11T22:22:38;25.20;;;15.53;;
14001;SDS011;7076;51.280;12.584;2023-02-11T22:27:42;25.70;;;15.73;;
14001;SDS011;7076;51.280;12.584;2023-02-11T22:32:45;24.80;;;14.50;;
14001;SDS011;7076;51.280;12.584;2023-02-11T22:37:47;26.10;;;15.93;;
14001;SDS011;7076;51.280;12.584;2023-02-11T22:42:51;26.07;;;14.80;;
14001;SDS011;7076;51.280;12.584;2023-02-11T22:47:54;26.57;;;15.40;;
14001;SDS011;7076;51.280;12.584;2023-02-11T22:52:57;27.53;;;16.10;;
14001;SDS011;7076;51.280;12.584;2023-02-11T22:58:01;26.43;;;15.43;;
14001;SDS011;7076;51.280;12.584;2023-02-11T23:03:05;24.30;;;15.03;;
14001;SDS011;7076;51.280;12.584;2023-02-11T23:08:09;24.13;;;14.80;;
14001;SDS011;7076;51.280;12.584;2023-02-11T23:13:14;25.57;;;16.30;;
14001;SDS011;7076;51.280;12.584;2023-02-11T23:18:17;21.50;;;14.07;;
14001;SDS011;7076;51.280;12.584;2023-02-11T23:23:19;23.53;;;14.93;;
14001;SDS011;7076;51.280;12.584;2023-02-11T23:28:23;24.60;;;15.30;;
14001;SDS011;7076;51.280;12.584;2023-02-11T23:33:26;26.67;;;15.37;;
14001;SDS011;7076;51.280;12.584;2023-02-11T23:38:29;28.63;;;15.90;;
14001;SDS011;7076;51.280;12.584;2023-02-11T23:43:33;25.07;;;15.40;;
14001;SDS011;7076;51.280;12.584;2023-02-11T23:48:36;26.77;;;16.43;;
14001;SDS011;7076;51.280;12.584;2023-02-11T23:53:40;27.83;;;15.30;;
14001;SDS011;7076;51.280;12.584;2023-02-11T23:58:45;23.53;;;15.50;;
